LLOV

Details ICAO LLOV (VDA)
Name OVDA
Region Israel
Timezone Asia/Jerusalem (UTC+3.0)
Plans Departing 23
Arriving 27
Stats Elevation 1,492 ft / 455 m (AMSL)
Location 29.940251° 34.935849°
Runways 2
Magnetic Variation 4.502° E
Sunrise 2018-05-27 02:42:47 UTC / 2018-05-27 05:42:47 Local
Sunset 2018-05-27 16:34:54 UTC / 2018-05-27 19:34:54 Local
Advertisement - Login to hide

Runways

ID Width Length Bearing (true) Bearing (mag) Surface Threshold Offset Overrun Length
02L 148 ft / 45 m 8,514 ft / 2,595 m 21.99° 17.49° Asphalt 492 ft / 150 m 197 ft / 60 m
02R 148 ft / 45 m 9,829 ft / 2,996 m 21.93° 17.43° Asphalt 492 ft / 150 m 557 ft / 170 m
20L 148 ft / 45 m 9,829 ft / 2,996 m 201.94° 197.44° Asphalt 492 ft / 150 m 557 ft / 170 m
20R 148 ft / 45 m 8,514 ft / 2,595 m 202.00° 197.50° Asphalt 492 ft / 150 m 197 ft / 60 m

Map

Weather


0- 5 10 15 20 25 30 35+ Temperature / ° C

Clouds and Precipitation
Forecast for 2018-05-27 12:00 UTC. Updated an hour ago

Ground ~20,000 ft ~40,000 ft Winds

METAR

LLOV 270950Z VRB02KT CAVOK 31/11 Q1011 RMK SCT090

TAF

TAF LLOV 270808Z 2708/2806 36006KT CAVOK BECMG 2710/2712 28008KT PROB30 2712/2716 8000 TSRA FEW070CB BKN090 BECMG 2716/2718 VRB04KT TX32/2712Z TN20/2803Z

Frequencies

Tower 129.90 MHz TWR
Warning: Do not use this data for real-world aviation or navigation. No guarantee of current accuracy is given.